Time;durP1;ratioP1;P1;durP2;ratioP2;P2;SDS_P1;SDS_P2;PMS_P1;PMS_P2;Temp;Humidity;BMP_temperature;BMP_pressure;BME280_temperature;BME280_humidity;BME280_pressure;Samples;Min_cycle;Max_cycle;Signal;HPM_P1;HPM_P2
2023/06/16 00:01:31;;;;;;;1999.90;999.90;;;17.30;89.70;;;;;;5054278;28;20041;-82
2023/06/16 00:04:03;;;;;;;1999.90;999.90;;;17.30;90.00;;;;;;5054307;28;20065;-82
2023/06/16 00:06:29;;;;;;;1999.90;999.90;;;17.20;90.20;;;;;;5038330;28;20090;-81
2023/06/16 00:08:57;;;;;;;1999.90;999.90;;;17.10;90.30;;;;;;5055894;28;20048;-82
2023/06/16 00:11:25;;;;;;;1999.90;999.90;;;17.10;90.50;;;;;;5054333;28;20059;-82
2023/06/16 00:13:51;;;;;;;1999.90;999.90;;;17.00;90.70;;;;;;5054295;28;20055;-82
2023/06/16 00:16:20;;;;;;;1999.90;999.90;;;16.90;90.80;;;;;;5037282;28;20115;-82
2023/06/16 00:18:49;;;;;;;1999.90;999.90;;;16.90;91.00;;;;;;5055151;28;20044;-81
2023/06/16 00:21:19;;;;;;;1999.90;999.90;;;16.80;91.20;;;;;;5054151;28;20049;-82
2023/06/16 00:23:48;;;;;;;1999.90;999.90;;;16.80;91.40;;;;;;5054299;28;20044;-82
2023/06/16 00:26:13;;;;;;;1999.90;999.90;;;16.70;91.60;;;;;;5037116;28;20044;-81
2023/06/16 00:28:40;;;;;;;1999.90;999.90;;;16.70;91.80;;;;;;5053708;28;20045;-82
2023/06/16 00:31:06;;;;;;;1999.90;999.90;;;16.60;92.00;;;;;;5055137;28;20171;-83
2023/06/16 00:33:32;;;;;;;1999.90;999.90;;;16.60;92.20;;;;;;5054166;28;20487;-82
2023/06/16 00:35:58;;;;;;;1999.90;999.90;;;16.50;92.40;;;;;;5053581;28;20475;-82
2023/06/16 00:38:24;;;;;;;1999.90;999.90;;;16.50;92.60;;;;;;5054752;28;20049;-82
2023/06/16 00:40:49;;;;;;;1999.90;999.90;;;16.50;92.80;;;;;;5054728;28;20068;-82
2023/06/16 00:43:15;;;;;;;1999.90;999.90;;;16.40;93.10;;;;;;5037359;28;20049;-82
2023/06/16 00:45:41;;;;;;;1999.90;999.90;;;16.40;93.40;;;;;;5037922;28;20470;-82
2023/06/16 00:48:07;;;;;;;1999.90;999.90;;;16.30;93.60;;;;;;5054663;28;20053;-82
2023/06/16 00:50:33;;;;;;;1999.90;999.90;;;16.30;93.80;;;;;;5020563;28;20048;-82
2023/06/16 00:52:59;;;;;;;1999.90;999.90;;;16.20;94.00;;;;;;5053501;28;20059;-81
2023/06/16 00:55:25;;;;;;;1999.90;999.90;;;16.20;94.30;;;;;;5053728;28;20051;-82
2023/06/16 00:57:53;;;;;;;1999.90;999.90;;;16.20;94.60;;;;;;5054573;28;20074;-81
2023/06/16 01:00:20;;;;;;;1999.90;999.90;;;16.20;95.00;;;;;;5053230;28;20048;-81
2023/06/16 01:02:47;;;;;;;1999.90;999.90;;;16.20;95.40;;;;;;5054318;28;20084;-81
2023/06/16 01:05:16;;;;;;;1999.90;999.90;;;16.20;95.80;;;;;;5053248;28;20045;-80
2023/06/16 01:07:59;;;;;;;1999.90;999.90;;;16.20;96.20;;;;;;5036793;28;20140;-81
2023/06/16 01:10:27;;;;;;;;;;;16.20;96.90;;;;;;5054112;28;20056;-82
2023/06/16 01:13:07;;;;;;;1999.90;999.90;;;16.20;98.80;;;;;;5055007;28;20234;-81
2023/06/16 01:15:34;;;;;;;1999.90;999.90;;;16.20;97.80;;;;;;5053445;28;20057;-82
2023/06/16 01:18:01;;;;;;;1999.90;999.90;;;16.10;98.00;;;;;;5053759;28;20125;-83
2023/06/16 01:20:42;;;;;;;1999.90;999.90;;;16.20;98.40;;;;;;5052921;28;20106;-82
2023/06/16 01:23:26;;;;;;;1999.90;999.90;;;16.20;98.90;;;;;;5036874;28;20123;-81
2023/06/16 01:25:55;;;;;;;1999.90;999.90;;;16.10;99.10;;;;;;5052879;28;20052;-81
2023/06/16 01:28:24;;;;;;;1999.90;999.90;;;16.20;99.40;;;;;;5052935;28;20457;-82
2023/06/16 01:30:52;;;;;;;1999.90;999.90;;;16.10;99.70;;;;;;5036330;28;20107;-81
2023/06/16 01:33:20;;;;;;;1999.90;999.90;;;16.10;99.90;;;;;;5052662;28;20091;-82
2023/06/16 01:35:47;;;;;;;1999.90;999.90;;;16.10;99.90;;;;;;5054247;28;20080;-82
2023/06/16 01:38:14;;;;;;;1999.90;999.90;;;16.10;99.90;;;;;;5052627;28;20045;-82
2023/06/16 01:40:46;;;;;;;1999.90;999.90;;;16.00;99.90;;;;;;5053725;28;20049;-81
2023/06/16 01:43:12;;;;;;;1999.90;999.90;;;16.00;99.90;;;;;;5053173;28;20037;-81
2023/06/16 01:45:38;;;;;;;1999.90;999.90;;;15.90;99.90;;;;;;5036084;28;20287;-81
2023/06/16 01:48:05;;;;;;;1999.90;999.90;;;15.90;99.90;;;;;;5052223;28;20057;-82
2023/06/16 01:50:31;;;;;;;1999.90;999.90;;;15.90;99.90;;;;;;5035577;28;20182;-82
2023/06/16 01:52:57;;;;;;;1999.90;999.90;;;15.90;99.90;;;;;;5052397;28;20048;-82
2023/06/16 01:55:23;;;;;;;1999.90;999.90;;;15.80;99.90;;;;;;5035728;28;20036;-82
2023/06/16 01:57:49;;;;;;;1999.90;999.90;;;15.80;99.90;;;;;;5053700;28;20053;-82
2023/06/16 02:00:19;;;;;;;1999.90;999.90;;;15.80;99.90;;;;;;5052410;28;20052;-82
2023/06/16 02:02:57;;;;;;;1999.90;999.90;;;15.80;99.90;;;;;;5054001;28;20098;-81
2023/06/16 02:05:25;;;;;;;1999.90;999.90;;;15.80;99.90;;;;;;5053515;28;20064;-81
2023/06/16 02:07:54;;;;;;;1999.90;999.90;;;15.80;99.90;;;;;;5052755;28;20061;-81
2023/06/16 02:10:24;;;;;;;1999.90;999.90;;;15.80;99.90;;;;;;5053432;28;20124;-81
2023/06/16 02:12:50;;;;;;;1999.90;999.90;;;15.80;99.90;;;;;;5052271;28;20132;-82
2023/06/16 02:15:18;;;;;;;1999.90;999.90;;;15.70;99.90;;;;;;5052433;28;20493;-82
2023/06/16 02:17:45;;;;;;;1999.90;999.90;;;15.70;99.90;;;;;;5053938;28;20041;-82
2023/06/16 02:20:12;;;;;;;1999.90;999.90;;;15.70;99.90;;;;;;5036470;28;20056;-83
2023/06/16 02:22:38;;;;;;;1999.90;999.90;;;15.70;99.90;;;;;;5053306;28;20045;-83
2023/06/16 02:25:04;;;;;;;1999.90;999.90;;;15.70;99.90;;;;;;5052321;28;20054;-83
2023/06/16 02:27:29;;;;;;;1999.90;999.90;;;15.70;99.90;;;;;;5053263;28;20052;-83
2023/06/16 02:29:55;;;;;;;1999.90;999.90;;;15.70;99.90;;;;;;5052058;28;20045;-83
2023/06/16 02:32:21;;;;;;;1999.90;999.90;;;15.60;99.90;;;;;;5035676;28;20056;-83
2023/06/16 02:34:46;;;;;;;1999.90;999.90;;;15.60;99.90;;;;;;5035301;28;20179;-82
2023/06/16 02:37:13;;;;;;;1999.90;999.90;;;15.60;99.90;;;;;;5053162;28;20049;-83
2023/06/16 02:39:39;;;;;;;1999.90;999.90;;;15.50;99.90;;;;;;5053658;28;20091;-82
2023/06/16 02:42:06;;;;;;;1999.90;999.90;;;15.50;99.90;;;;;;5052941;28;20049;-82
2023/06/16 02:44:31;;;;;;;1999.90;999.90;;;15.50;99.90;;;;;;5053062;28;20052;-81
2023/06/16 02:46:58;;;;;;;1999.90;999.90;;;15.50;99.90;;;;;;5053924;28;20041;-81
2023/06/16 02:49:23;;;;;;;1999.90;999.90;;;15.50;99.90;;;;;;5055673;28;20080;-82
2023/06/16 02:51:50;;;;;;;1999.90;999.90;;;15.50;99.90;;;;;;5056719;28;20481;-81
2023/06/16 02:54:16;;;;;;;1999.90;999.90;;;15.40;99.90;;;;;;5038914;28;20089;-81
2023/06/16 02:56:41;;;;;;;1999.90;999.90;;;15.40;99.90;;;;;;5056028;28;20045;-70
2023/06/16 02:59:08;;;;;;;1999.90;999.90;;;15.50;99.90;;;;;;5056628;28;20085;-69
2023/06/16 03:01:34;;;;;;;1999.90;999.90;;;15.40;99.90;;;;;;5055280;28;20044;-69
2023/06/16 03:03:59;;;;;;;1999.90;999.90;;;15.40;99.90;;;;;;5055296;28;20044;-69
2023/06/16 03:06:29;;;;;;;1999.90;999.90;;;15.40;99.90;;;;;;5057343;28;20052;-71
2023/06/16 03:08:57;;;;;;;1999.90;999.90;;;15.40;99.90;;;;;;5057294;28;20132;-69
2023/06/16 03:11:23;;;;;;;1999.90;999.90;;;15.40;99.90;;;;;;5055274;28;20037;-69
2023/06/16 03:13:49;;;;;;;1999.90;999.90;;;15.40;99.90;;;;;;5055221;28;20122;-69
2023/06/16 03:16:16;;;;;;;1999.90;999.90;;;15.40;99.90;;;;;;5056850;28;20063;-69
2023/06/16 03:18:43;;;;;;;1999.90;999.90;;;15.40;99.90;;;;;;5055278;28;20049;-70
2023/06/16 03:21:10;;;;;;;1999.90;999.90;;;15.40;99.90;;;;;;5056632;28;20088;-70
2023/06/16 03:23:35;;;;;;;1999.90;999.90;;;15.40;99.90;;;;;;5056871;28;20114;-69
2023/06/16 03:26:01;;;;;;;1999.90;999.90;;;15.40;99.90;;;;;;5056532;28;20049;-69
2023/06/16 03:28:27;;;;;;;1999.90;999.90;;;15.50;99.90;;;;;;5056043;28;20055;-69
2023/06/16 03:30:53;;;;;;;1999.90;999.90;;;15.50;99.90;;;;;;5054883;28;20532;-70
2023/06/16 03:33:20;;;;;;;1999.90;999.90;;;15.50;99.90;;;;;;5056462;28;20056;-69
2023/06/16 03:35:45;;;;;;;1999.90;999.90;;;15.50;99.90;;;;;;5055468;28;20051;-69
2023/06/16 03:38:11;;;;;;;1999.90;999.90;;;15.50;99.90;;;;;;5054829;28;20048;-69
2023/06/16 03:40:38;;;;;;;1999.90;999.90;;;15.60;99.90;;;;;;5056016;28;20068;-69
2023/06/16 03:43:03;;;;;;;1999.90;999.90;;;15.60;99.90;;;;;;5056233;28;20377;-69
2023/06/16 03:45:29;;;;;;;1999.90;999.90;;;15.60;99.90;;;;;;5056441;28;20045;-69
2023/06/16 03:47:55;;;;;;;1999.90;999.90;;;15.70;99.90;;;;;;5055690;28;20497;-71
2023/06/16 03:50:20;;;;;;;1999.90;999.90;;;15.70;99.90;;;;;;5056070;28;20053;-69
2023/06/16 03:52:46;;;;;;;1999.90;999.90;;;15.70;99.90;;;;;;5054359;28;20128;-69
2023/06/16 03:55:13;;;;;;;1999.90;999.90;;;15.70;99.90;;;;;;5056007;28;20048;-69
2023/06/16 03:57:39;;;;;;;1999.90;999.90;;;15.70;99.90;;;;;;5054653;28;20048;-69
2023/06/16 04:00:10;;;;;;;1999.90;999.90;;;15.70;99.90;;;;;;5055294;28;20477;-70
2023/06/16 04:02:36;;;;;;;1999.90;999.90;;;15.70;99.90;;;;;;5055767;28;20385;-69
2023/06/16 04:05:03;;;;;;;1999.90;999.90;;;15.80;99.90;;;;;;5055323;28;20048;-69
2023/06/16 04:07:30;;;;;;;1999.90;999.90;;;15.80;99.90;;;;;;5055308;28;20542;-69
2023/06/16 04:09:56;;;;;;;1999.90;999.90;;;15.80;99.90;;;;;;5055410;28;20095;-69
2023/06/16 04:12:22;;;;;;;1999.90;999.90;;;15.80;99.90;;;;;;5055260;28;20049;-69
2023/06/16 04:14:48;;;;;;;1999.90;999.90;;;15.80;99.90;;;;;;5055375;28;20045;-69
2023/06/16 04:17:13;;;;;;;1999.90;999.90;;;15.80;99.90;;;;;;5055097;28;20052;-70
2023/06/16 04:19:41;;;;;;;1999.90;999.90;;;15.80;99.90;;;;;;5054553;28;20178;-70
2023/06/16 04:22:06;;;;;;;1999.90;999.90;;;15.90;99.90;;;;;;5054953;28;20139;-70
2023/06/16 04:24:32;;;;;;;1999.90;999.90;;;15.90;99.90;;;;;;5053772;28;20243;-70
2023/06/16 04:26:59;;;;;;;1999.90;999.90;;;15.90;99.90;;;;;;5055058;28;20040;-70
2023/06/16 04:29:26;;;;;;;1999.90;999.90;;;15.90;99.90;;;;;;5060600;28;20053;-69
2023/06/16 04:31:52;;;;;;;1999.90;999.90;;;15.90;99.90;;;;;;5058925;28;20081;-70
2023/06/16 04:34:18;;;;;;;1999.90;999.90;;;15.90;99.90;;;;;;5055111;28;20076;-70
2023/06/16 04:36:44;;;;;;;1999.90;999.90;;;16.00;99.90;;;;;;5055081;28;20529;-70
2023/06/16 04:39:14;;;;;;;1999.90;999.90;;;16.00;99.90;;;;;;5054614;28;20096;-69
2023/06/16 04:41:42;;;;;;;1999.90;999.90;;;16.00;99.90;;;;;;5053105;28;20468;-69
2023/06/16 04:44:09;;;;;;;1999.90;999.90;;;16.00;99.90;;;;;;5053923;28;20060;-69
2023/06/16 04:46:36;;;;;;;1999.90;999.90;;;16.10;99.90;;;;;;5037707;28;20045;-69
2023/06/16 04:49:02;;;;;;;1999.90;999.90;;;16.10;99.90;;;;;;5053589;28;20177;-70
2023/06/16 04:51:28;;;;;;;1999.90;999.90;;;16.10;99.90;;;;;;5054656;28;20488;-69
2023/06/16 04:53:54;;;;;;;1999.90;999.90;;;16.20;99.90;;;;;;5054415;28;20053;-69
2023/06/16 04:56:19;;;;;;;1999.90;999.90;;;16.20;99.90;;;;;;5054888;28;20381;-69
2023/06/16 04:58:45;;;;;;;1999.90;999.90;;;16.30;99.90;;;;;;5053172;28;20119;-69
2023/06/16 05:01:11;;;;;;;1999.90;999.90;;;16.30;99.90;;;;;;5054661;28;20099;-69
2023/06/16 05:03:37;;;;;;;1999.90;999.90;;;16.30;99.90;;;;;;5054279;28;20052;-69
2023/06/16 05:06:03;;;;;;;1999.90;999.90;;;16.40;99.90;;;;;;5054197;28;20052;-69
2023/06/16 05:08:29;;;;;;;1999.90;999.90;;;16.40;99.90;;;;;;5054011;28;20102;-69
2023/06/16 05:10:55;;;;;;;1999.90;999.90;;;16.50;99.90;;;;;;5036047;28;20560;-69
2023/06/16 05:13:20;;;;;;;1999.90;999.90;;;16.60;99.90;;;;;;5052919;28;20107;-69
2023/06/16 05:15:46;;;;;;;1999.90;999.90;;;16.60;99.90;;;;;;5052847;28;20049;-69
2023/06/16 05:18:12;;;;;;;1999.90;999.90;;;16.60;99.90;;;;;;5053955;28;20052;-69
2023/06/16 05:20:37;;;;;;;1999.90;999.90;;;16.70;99.90;;;;;;5054262;28;20048;-69
2023/06/16 05:23:03;;;;;;;1999.90;999.90;;;16.70;99.90;;;;;;5053972;28;20048;-69
2023/06/16 05:25:30;;;;;;;1999.90;999.90;;;16.80;99.90;;;;;;5053870;28;20044;-69
2023/06/16 05:27:56;;;;;;;1999.90;999.90;;;16.80;99.90;;;;;;5054360;28;20110;-69
2023/06/16 05:30:21;;;;;;;1999.90;999.90;;;16.80;99.90;;;;;;5053954;28;20045;-69
2023/06/16 05:32:48;;;;;;;1999.90;999.90;;;16.80;99.90;;;;;;5054284;28;20052;-69
2023/06/16 05:35:14;;;;;;;1999.90;999.90;;;16.80;99.90;;;;;;5052555;28;20048;-69
2023/06/16 05:37:39;;;;;;;1999.90;999.90;;;16.80;99.90;;;;;;5053217;28;20045;-69
2023/06/16 05:40:06;;;;;;;1999.90;999.90;;;16.90;99.90;;;;;;5054505;28;20107;-69
2023/06/16 05:42:33;;;;;;;1999.90;999.90;;;16.90;99.90;;;;;;5052360;28;20126;-69
2023/06/16 05:44:58;;;;;;;1999.90;999.90;;;16.90;99.90;;;;;;5053570;28;20064;-69
2023/06/16 05:47:24;;;;;;;1999.90;999.90;;;17.00;99.90;;;;;;5053460;28;20393;-69
2023/06/16 05:49:50;;;;;;;1999.90;999.90;;;17.00;99.90;;;;;;5053283;28;20052;-69
2023/06/16 05:52:16;;;;;;;1999.90;999.90;;;17.00;99.90;;;;;;5053516;28;20052;-70
2023/06/16 05:54:41;;;;;;;1999.90;999.90;;;17.10;99.90;;;;;;5053413;28;20071;-69
2023/06/16 05:57:07;;;;;;;1999.90;999.90;;;17.10;99.90;;;;;;5053412;28;20041;-69
2023/06/16 05:59:35;;;;;;;1999.90;999.90;;;17.20;99.90;;;;;;5053361;28;20066;-69
2023/06/16 06:02:00;;;;;;;1999.90;999.90;;;17.20;99.90;;;;;;5053254;28;20051;-70
2023/06/16 06:04:28;;;;;;;1999.90;999.90;;;17.30;99.90;;;;;;5052351;28;20040;-69
2023/06/16 06:06:54;;;;;;;1999.90;999.90;;;17.30;99.90;;;;;;5035600;28;20049;-68
2023/06/16 06:09:20;;;;;;;1999.90;999.90;;;17.40;99.90;;;;;;5035687;28;20392;-67
2023/06/16 06:11:46;;;;;;;1999.90;999.90;;;17.40;99.90;;;;;;5053291;28;20091;-68
2023/06/16 06:14:11;;;;;;;1999.90;999.90;;;17.50;99.90;;;;;;5035757;28;20393;-68
2023/06/16 06:16:38;;;;;;;1999.90;999.90;;;17.50;99.90;;;;;;5019950;28;20046;-69
2023/06/16 06:19:04;;;;;;;1999.90;999.90;;;17.60;99.90;;;;;;5052271;28;20057;-68
2023/06/16 06:21:30;;;;;;;1999.90;999.90;;;17.60;99.90;;;;;;5053763;28;20049;-69
2023/06/16 06:24:00;;;;;;;1999.90;999.90;;;17.70;99.90;;;;;;5040533;28;20052;-68
2023/06/16 06:26:27;;;;;;;1999.90;999.90;;;17.70;99.90;;;;;;5023693;28;20064;-68
2023/06/16 06:28:52;;;;;;;1999.90;999.90;;;17.80;99.90;;;;;;5023799;28;20053;-69
2023/06/16 06:31:19;;;;;;;1999.90;999.90;;;17.80;99.90;;;;;;5039232;28;20527;-69
2023/06/16 06:33:45;;;;;;;1999.90;999.90;;;17.80;99.90;;;;;;5023249;28;20060;-70
2023/06/16 06:36:11;;;;;;;1999.90;999.90;;;17.90;99.90;;;;;;5040106;28;20040;-70
2023/06/16 06:38:40;;;;;;;1999.90;999.90;;;18.00;99.90;;;;;;5056922;28;20045;-70
2023/06/16 06:41:05;;;;;;;1999.90;999.90;;;18.00;99.90;;;;;;5039097;28;20132;-70
2023/06/16 06:43:37;;;;;;;1999.90;999.90;;;18.10;99.90;;;;;;5024474;28;20059;-69
2023/06/16 06:46:03;;;;;;;1999.90;999.90;;;18.10;99.90;;;;;;5025268;28;20044;-69
2023/06/16 06:48:29;;;;;;;1999.90;999.90;;;18.20;99.90;;;;;;5055912;28;20056;-70
2023/06/16 06:50:54;;;;;;;1999.90;999.90;;;18.20;99.90;;;;;;5056956;28;20048;-68
2023/06/16 06:53:20;;;;;;;1999.90;999.90;;;18.20;99.90;;;;;;5057417;28;20454;-69
2023/06/16 06:55:52;;;;;;;1999.90;999.90;;;18.40;99.90;;;;;;5040893;28;20087;-68
2023/06/16 06:58:18;;;;;;;1999.90;999.90;;;18.40;99.90;;;;;;5038784;28;20076;-69
2023/06/16 07:00:50;;;;;;;1999.90;999.90;;;18.50;99.90;;;;;;5022466;28;20047;-69
2023/06/16 07:03:15;;;;;;;1999.90;999.90;;;18.50;99.90;;;;;;5024341;28;20132;-69
2023/06/16 07:05:42;;;;;;;1999.90;999.90;;;18.60;99.90;;;;;;5055651;28;20575;-68
2023/06/16 07:08:08;;;;;;;1999.90;999.90;;;18.70;99.90;;;;;;5039234;28;20049;-69
2023/06/16 07:10:36;;;;;;;1999.90;999.90;;;19.10;99.90;;;;;;5039151;28;20388;-69
2023/06/16 07:13:07;;;;;;;1999.90;999.90;;;18.80;99.90;;;;;;5040301;28;20385;-67
2023/06/16 07:15:33;;;;;;;1999.90;999.90;;;18.80;99.90;;;;;;5039619;28;20045;-70
2023/06/16 07:17:59;;;;;;;1999.90;999.90;;;18.90;99.90;;;;;;5055646;28;20095;-67
2023/06/16 07:20:25;;;;;;;1999.90;999.90;;;18.90;99.90;;;;;;5055964;28;20048;-68
2023/06/16 07:22:52;;;;;;;1999.90;999.90;;;18.90;99.90;;;;;;5056303;28;20033;-68
2023/06/16 07:25:18;;;;;;;1999.90;999.90;;;19.00;99.90;;;;;;5038749;28;20041;-68
2023/06/16 07:27:45;;;;;;;1999.90;999.90;;;19.00;99.90;;;;;;5054941;28;20386;-68
2023/06/16 07:30:11;;;;;;;1999.90;999.90;;;19.10;99.90;;;;;;5039409;28;20072;-69
2023/06/16 07:32:39;;;;;;;1999.90;999.90;;;19.20;99.90;;;;;;5055831;28;20131;-68
2023/06/16 07:35:06;;;;;;;1999.90;999.90;;;19.20;99.90;;;;;;5054862;28;20053;-69
2023/06/16 07:37:32;;;;;;;1999.90;999.90;;;19.30;99.90;;;;;;5054829;28;20037;-69
2023/06/16 07:39:58;;;;;;;1999.90;999.90;;;19.30;99.90;;;;;;5055917;28;20469;-70
2023/06/16 07:42:30;;;;;;;1999.90;999.90;;;19.40;99.90;;;;;;5039184;28;20052;-68
2023/06/16 07:44:56;;;;;;;1999.90;999.90;;;19.40;99.90;;;;;;5022676;28;20036;-69
2023/06/16 07:47:21;;;;;;;1999.90;999.90;;;19.50;99.90;;;;;;5054946;28;20431;-69
2023/06/16 07:49:47;;;;;;;1999.90;999.90;;;19.60;99.90;;;;;;5055321;28;20052;-68
2023/06/16 07:52:13;;;;;;;1999.90;999.90;;;19.60;99.90;;;;;;5055410;28;20381;-67
2023/06/16 07:54:40;;;;;;;1999.90;999.90;;;19.60;99.90;;;;;;5055760;28;20045;-69
2023/06/16 07:57:07;;;;;;;1999.90;999.90;;;19.60;99.90;;;;;;5056352;28;20048;-68
2023/06/16 07:59:33;;;;;;;1999.90;999.90;;;19.70;99.90;;;;;;5055485;28;20051;-67
2023/06/16 08:02:01;;;;;;;1999.90;999.90;;;19.70;99.90;;;;;;5054537;28;20465;-67
2023/06/16 08:04:29;;;;;;;1999.90;999.90;;;19.80;99.90;;;;;;5038833;28;20044;-67
2023/06/16 08:06:57;;;;;;;1999.90;999.90;;;19.90;99.90;;;;;;5055877;28;20044;-72
2023/06/16 08:09:26;;;;;;;1999.90;999.90;;;19.90;99.90;;;;;;5054008;28;20049;-67
2023/06/16 08:11:52;;;;;;;1999.90;999.90;;;20.00;99.90;;;;;;5038185;28;20044;-68
2023/06/16 08:14:17;;;;;;;1999.90;999.90;;;20.00;99.90;;;;;;5055163;28;20472;-68
2023/06/16 08:16:43;;;;;;;1999.90;999.90;;;20.00;99.90;;;;;;5055323;28;20045;-68
2023/06/16 08:19:10;;;;;;;1999.90;999.90;;;20.10;99.90;;;;;;5055181;28;20055;-68
2023/06/16 08:21:37;;;;;;;1999.90;999.90;;;20.10;99.90;;;;;;5055092;28;20174;-68
2023/06/16 08:24:04;;;;;;;1999.90;999.90;;;20.20;99.90;;;;;;5055275;28;20080;-67
2023/06/16 08:26:29;;;;;;;1999.90;999.90;;;20.20;99.90;;;;;;5055893;28;20041;-67
2023/06/16 08:28:55;;;;;;;1999.90;999.90;;;20.30;99.90;;;;;;5054460;28;20045;-68
2023/06/16 08:31:21;;;;;;;1999.90;999.90;;;20.40;99.90;;;;;;5037499;28;20041;-66
2023/06/16 08:33:47;;;;;;;1999.90;999.90;;;20.40;99.90;;;;;;5037870;28;20037;-68
2023/06/16 08:36:12;;;;;;;1999.90;999.90;;;20.40;99.90;;;;;;5021005;28;20084;-68
2023/06/16 08:38:38;;;;;;;1999.90;999.90;;;20.50;99.90;;;;;;5054258;28;20048;-69
2023/06/16 08:41:10;;;;;;;1999.90;999.90;;;20.40;99.90;;;;;;5037214;28;20491;-68
2023/06/16 08:43:36;;;;;;;1999.90;999.90;;;20.50;99.90;;;;;;5036907;28;20045;-69
2023/06/16 08:46:08;;;;;;;1999.90;999.90;;;20.50;99.90;;;;;;5054323;28;20103;-70
2023/06/16 08:48:36;;;;;;;1999.90;999.90;;;20.60;99.90;;;;;;5054817;28;20044;-68
2023/06/16 08:51:04;;;;;;;1999.90;999.90;;;20.60;99.90;;;;;;5054861;28;20044;-67
2023/06/16 08:53:33;;;;;;;1999.90;999.90;;;20.70;99.90;;;;;;5055438;28;20118;-67
2023/06/16 08:56:04;;;;;;;1999.90;999.90;;;20.70;99.90;;;;;;5055691;28;20045;-68
2023/06/16 08:58:31;;;;;;;1999.90;999.90;;;20.80;99.90;;;;;;5058057;28;20334;-68
2023/06/16 09:00:59;;;;;;;1999.90;999.90;;;20.80;99.90;;;;;;5039530;28;20116;-71
2023/06/16 09:03:32;;;;;;;1999.90;999.90;;;20.90;99.90;;;;;;5037413;28;20067;-68
2023/06/16 09:06:01;;;;;;;1999.90;999.90;;;20.90;99.90;;;;;;5036879;28;20127;-70
2023/06/16 09:08:29;;;;;;;1999.90;999.90;;;20.90;99.70;;;;;;5053171;28;20047;-69
2023/06/16 09:10:56;;;;;;;1999.90;999.90;;;21.00;98.80;;;;;;5020491;28;20529;-68
2023/06/16 09:13:23;;;;;;;1999.90;999.90;;;21.00;97.30;;;;;;5036269;28;20480;-68
2023/06/16 09:15:49;;;;;;;1999.90;999.90;;;21.00;96.00;;;;;;5053789;28;20049;-65
2023/06/16 09:18:16;;;;;;;1999.90;999.90;;;21.00;94.90;;;;;;5036690;28;20055;-68
2023/06/16 09:20:51;;;;;;;1999.90;999.90;;;21.00;93.60;;;;;;5053755;28;20045;-67
2023/06/16 09:23:29;;;;;;;1999.90;999.90;;;21.00;92.50;;;;;;5053682;28;20460;-68
2023/06/16 09:25:55;;;;;;;1999.90;999.90;;;21.10;91.40;;;;;;5054658;28;20192;-70
2023/06/16 09:28:34;;;;;;;1999.90;999.90;;;21.10;91.40;;;;;;5053834;28;20389;-68
2023/06/16 09:31:11;;;;;;;1999.90;999.90;;;21.20;90.80;;;;;;5053792;28;20045;-69
2023/06/16 09:33:37;;;;;;;1999.90;999.90;;;21.10;89.50;;;;;;5054644;28;20368;-70
2023/06/16 09:36:03;;;;;;;1999.90;999.90;;;21.20;88.20;;;;;;5053092;28;20132;-69
2023/06/16 09:38:36;;;;;;;1999.90;999.90;;;21.20;87.80;;;;;;5053963;28;20501;-70
2023/06/16 09:41:09;;;;;;;1999.90;999.90;;;21.20;87.40;;;;;;5053639;28;20080;-69
2023/06/16 09:43:37;;;;;;;1999.90;999.90;;;21.30;87.00;;;;;;5052452;28;20127;-70
2023/06/16 09:46:02;;;;;;;1999.90;999.90;;;21.40;87.00;;;;;;5053620;28;20045;-69
2023/06/16 09:48:34;;;;;;;1999.90;999.90;;;21.40;85.90;;;;;;5053500;28;20588;-69
2023/06/16 09:51:00;;;;;;;1999.90;999.90;;;21.40;85.80;;;;;;5052827;28;20056;-70
2023/06/16 09:53:26;;;;;;;1999.90;999.90;;;21.50;86.10;;;;;;5053630;28;20048;-69
2023/06/16 09:55:53;;;;;;;1999.90;999.90;;;21.50;85.70;;;;;;5053502;28;20132;-70
2023/06/16 09:58:20;;;;;;;1999.90;999.90;;;21.60;85.40;;;;;;5052457;28;20133;-68
2023/06/16 10:00:45;;;;;;;1999.90;999.90;;;21.60;85.50;;;;;;5053773;28;20144;-69
2023/06/16 10:03:13;;;;;;;1999.90;999.90;;;21.60;85.50;;;;;;5035701;28;20049;-71
2023/06/16 10:05:40;;;;;;;1999.90;999.90;;;21.70;85.50;;;;;;5052196;28;20064;-68
2023/06/16 10:08:07;;;;;;;1999.90;999.90;;;21.80;85.50;;;;;;5054437;28;20084;-69
2023/06/16 10:10:33;;;;;;;1999.90;999.90;;;21.80;84.60;;;;;;5055543;28;20044;-68
2023/06/16 10:13:03;;;;;;;1999.90;999.90;;;21.80;85.10;;;;;;5051862;28;20052;-68
2023/06/16 10:15:34;;;;;;;1999.90;999.90;;;21.90;84.20;;;;;;5053007;28;20110;-69
2023/06/16 10:18:04;;;;;;;1999.90;999.90;;;22.00;84.10;;;;;;5052261;28;20049;-69
2023/06/16 10:20:34;;;;;;;1999.90;999.90;;;22.00;83.30;;;;;;5053038;28;20077;-68
2023/06/16 10:23:01;;;;;;;1999.90;999.90;;;22.00;82.80;;;;;;5053130;28;20091;-67
2023/06/16 10:25:29;;;;;;;1999.90;999.90;;;22.10;82.40;;;;;;5053292;28;20073;-68
2023/06/16 10:27:55;;;;;;;1999.90;999.90;;;22.00;82.30;;;;;;5053278;28;20048;-69
2023/06/16 10:30:23;;;;;;;1999.90;999.90;;;22.10;82.20;;;;;;5053306;28;20049;-68
2023/06/16 10:32:50;;;;;;;1999.90;999.90;;;22.10;82.40;;;;;;5053059;28;20045;-68
2023/06/16 10:35:17;;;;;;;1999.90;999.90;;;22.20;81.70;;;;;;5053215;28;20114;-67
2023/06/16 10:37:52;;;;;;;1999.90;999.90;;;22.20;81.30;;;;;;5053589;28;20102;-67
2023/06/16 10:40:23;;;;;;;1999.90;999.90;;;22.30;80.80;;;;;;5054116;28;20381;-68
2023/06/16 10:42:55;;;;;;;1999.90;999.90;;;22.30;80.00;;;;;;5053127;28;20542;-69
2023/06/16 10:45:28;;;;;;;1999.90;999.90;;;22.30;80.30;;;;;;5052410;28;20057;-68
2023/06/16 10:48:10;;;;;;;1999.90;999.90;;;22.30;80.50;;;;;;5051788;28;20069;-66
2023/06/16 10:50:39;;;;;;;1999.90;999.90;;;22.30;79.90;;;;;;5052012;28;20057;-68
2023/06/16 10:53:24;;;;;;;1999.90;999.90;;;22.30;79.90;;;;;;5035401;28;20053;-69
2023/06/16 10:56:04;;;;;;;1999.90;999.90;;;22.40;81.00;;;;;;5053035;28;20477;-68
2023/06/16 10:58:32;;;;;;;1999.90;999.90;;;22.40;80.40;;;;;;5052386;28;20049;-67
2023/06/16 11:01:06;;;;;;;1999.90;999.90;;;22.50;79.70;;;;;;5051751;28;20045;-65
2023/06/16 11:03:35;;;;;;;1999.90;999.90;;;22.40;79.20;;;;;;5051957;28;20045;-68
2023/06/16 11:06:03;;;;;;;1999.90;999.90;;;22.40;78.10;;;;;;5052907;28;20130;-69
2023/06/16 11:08:28;;;;;;;1999.90;999.90;;;22.50;78.50;;;;;;5055319;28;20175;-69
2023/06/16 11:11:05;;;;;;;1999.90;999.90;;;22.50;78.60;;;;;;5057163;28;20060;-66
2023/06/16 11:13:35;;;;;;;1999.90;999.90;;;22.60;78.80;;;;;;5039270;28;20098;-66
2023/06/16 11:16:02;;;;;;;1999.90;999.90;;;22.60;78.80;;;;;;5056640;28;20537;-67
2023/06/16 11:18:31;;;;;;;1999.90;999.90;;;22.70;78.60;;;;;;5039493;28;20099;-66
2023/06/16 11:21:01;;;;;;;1999.90;999.90;;;22.80;77.90;;;;;;5055240;28;20045;-67
2023/06/16 11:23:27;;;;;;;1999.90;999.90;;;22.80;77.30;;;;;;5038675;28;20053;-67
2023/06/16 11:26:06;;;;;;;1999.90;999.90;;;22.80;76.90;;;;;;5055145;28;20575;-65
2023/06/16 11:28:33;;;;;;;1999.90;999.90;;;22.80;76.10;;;;;;5039305;28;20057;-69
2023/06/16 11:31:01;;;;;;;1999.90;999.90;;;22.80;75.60;;;;;;5055178;28;20068;-68
2023/06/16 11:33:33;;;;;;;1999.90;999.90;;;22.80;75.30;;;;;;5023779;28;20106;-69
2023/06/16 11:36:18;;;;;;;1999.90;999.90;;;22.90;75.60;;;;;;5038201;28;20060;-69
2023/06/16 11:38:46;;;;;;;1999.90;999.90;;;22.90;74.80;;;;;;5055720;28;20516;-68
2023/06/16 11:41:20;;;;;;;1999.90;999.90;;;23.00;73.90;;;;;;5055476;28;20105;-69
2023/06/16 11:43:50;;;;;;;1999.90;999.90;;;23.00;73.60;;;;;;5054781;28;20060;-70
2023/06/16 11:46:30;;;;;;;1999.90;999.90;;;23.00;72.70;;;;;;5056572;28;20044;-68
2023/06/16 11:48:56;;;;;;;1999.90;999.90;;;23.00;72.10;;;;;;5055845;28;20104;-67
2023/06/16 11:51:23;;;;;;;1999.90;999.90;;;23.00;71.40;;;;;;5038150;28;20139;-67
2023/06/16 11:53:50;;;;;;;1999.90;999.90;;;23.10;71.00;;;;;;5054532;28;20127;-68
2023/06/16 11:56:17;;;;;;;1999.90;999.90;;;23.10;70.50;;;;;;5054602;28;20161;-69
2023/06/16 11:58:44;;;;;;;1999.90;999.90;;;23.10;69.90;;;;;;5055397;28;20060;-69
2023/06/16 12:01:14;;;;;;;1999.90;999.90;;;23.10;69.80;;;;;;5037871;28;20056;-69